Time;durP1;ratioP1;P1;durP2;ratioP2;P2;SDS_P1;SDS_P2;PMS_P1;PMS_P2;Temp;Humidity;BMP_temperature;BMP_pressure;BME280_temperature;BME280_humidity;BME280_pressure;Samples;Min_cycle;Max_cycle;Signal;HPM_P1;HPM_P2
2022/03/22 16:41:25;;;;;;;10.07;7.17;;;21.70;78.80;;;;;;4824152;29;20271;-88
2022/03/22 16:43:52;;;;;;;12.30;7.43;;;21.90;78.70;;;;;;4823550;29;20297;-85
2022/03/22 16:46:19;;;;;;;11.90;8.73;;;22.00;78.60;;;;;;4824433;29;20582;-86
2022/03/22 16:48:47;;;;;;;15.97;9.33;;;21.90;80.10;;;;;;4824647;29;20214;-84
2022/03/22 16:51:14;;;;;;;15.63;9.20;;;21.80;79.70;;;;;;4823393;29;20714;-82
2022/03/22 16:53:41;;;;;;;12.17;8.60;;;21.90;80.40;;;;;;4820254;29;20231;-78
2022/03/22 16:56:08;;;;;;;13.90;9.33;;;22.30;80.10;;;;;;4813416;29;20276;-82
2022/03/22 16:58:35;;;;;;;11.30;9.20;;;22.70;80.20;;;;;;4806153;29;20211;-82
2022/03/22 17:01:04;;;;;;;17.70;10.57;;;22.60;79.70;;;;;;4806412;29;20211;-81
2022/03/22 17:03:31;;;;;;;14.70;10.60;;;22.40;80.30;;;;;;4806023;29;20215;-79
2022/03/22 17:05:59;;;;;;;13.00;9.40;;;23.00;79.70;;;;;;4805976;29;20211;-79
2022/03/22 17:08:27;;;;;;;17.67;10.70;;;22.50;80.20;;;;;;4806036;29;20207;-80
2022/03/22 17:10:55;;;;;;;18.50;11.33;;;22.50;79.80;;;;;;4804710;29;20454;-78
2022/03/22 17:13:22;;;;;;;14.67;10.47;;;23.40;79.80;;;;;;4805707;29;20234;-82
2022/03/22 17:15:50;;;;;;;14.33;10.63;;;23.70;79.00;;;;;;4805750;29;20223;-82
2022/03/22 17:18:17;;;;;;;15.20;10.03;;;23.90;79.20;;;;;;4805284;29;20261;-81
2022/03/22 17:20:44;;;;;;;22.07;10.30;;;24.00;78.30;;;;;;4810020;29;20206;-78
2022/03/22 17:23:12;;;;;;;18.57;10.47;;;24.00;78.40;;;;;;4805218;29;20207;-77
2022/03/22 17:25:41;;;;;;;15.93;10.50;;;23.70;78.60;;;;;;4804032;29;20824;-81
2022/03/22 17:28:08;;;;;;;19.20;11.97;;;23.40;80.60;;;;;;4803179;29;20462;-80
2022/03/22 17:30:35;;;;;;;25.00;14.87;;;23.00;79.20;;;;;;4803944;29;20215;-79
2022/03/22 17:33:03;;;;;;;20.87;10.70;;;22.70;79.80;;;;;;4807194;29;20235;-82
2022/03/22 17:35:30;;;;;;;22.43;11.80;;;22.40;80.60;;;;;;4806347;29;20211;-80
2022/03/22 17:37:57;;;;;;;16.10;11.00;;;22.00;81.30;;;;;;4806980;29;20212;-82
2022/03/22 17:40:25;;;;;;;17.67;10.60;;;21.70;81.70;;;;;;4807084;29;20282;-78
2022/03/22 17:42:52;;;;;;;21.00;10.37;;;21.50;81.60;;;;;;4804693;29;20720;-84
2022/03/22 17:45:20;;;;;;;20.65;10.80;;;21.20;82.50;;;;;;4807603;29;20407;-80
2022/03/22 17:47:47;;;;;;;22.23;10.77;;;21.00;83.90;;;;;;4819999;29;20213;-77
2022/03/22 17:50:16;;;;;;;18.53;10.10;;;20.70;84.60;;;;;;4826389;29;20206;-78
2022/03/22 17:52:46;;;;;;;20.20;10.37;;;20.60;85.00;;;;;;4826817;29;20248;-76
2022/03/22 17:55:15;;;;;;;19.10;11.20;;;20.30;85.10;;;;;;4827247;29;20559;-81
2022/03/22 17:57:43;;;;;;;18.20;11.07;;;19.90;86.60;;;;;;4827100;29;20207;-83
2022/03/22 18:00:17;;;;;;;14.83;10.33;;;19.70;88.40;;;;;;4827148;29;20279;-88
2022/03/22 18:02:46;;;;;;;21.10;10.63;;;19.50;88.20;;;;;;4827301;29;20211;-86
2022/03/22 18:05:14;;;;;;;15.40;10.27;;;19.30;88.20;;;;;;4826998;29;20682;-84
2022/03/22 18:07:42;;;;;;;15.27;10.37;;;19.10;88.90;;;;;;4826797;29;20210;-83
2022/03/22 18:10:10;;;;;;;21.50;10.27;;;19.00;90.00;;;;;;4826842;29;20214;-88
2022/03/22 18:12:37;;;;;;;16.03;10.20;;;18.90;90.50;;;;;;4826708;29;20234;-89
2022/03/22 18:15:06;;;;;;;13.70;10.30;;;18.70;90.50;;;;;;4826315;29;20554;-85
2022/03/22 18:17:35;;;;;;;15.73;10.37;;;18.50;90.50;;;;;;4826339;29;20202;-83
2022/03/22 18:20:02;;;;;;;23.67;12.17;;;18.40;91.10;;;;;;4819381;29;20674;-86
2022/03/22 18:22:34;;;;;;;23.77;11.07;;;18.20;91.10;;;;;;4807672;29;20708;-86
2022/03/22 18:25:01;;;;;;;22.13;12.10;;;18.10;91.60;;;;;;4808140;29;20198;-88
2022/03/22 18:27:31;;;;;;;16.27;12.33;;;17.90;91.20;;;;;;4808834;29;20206;-86
2022/03/22 18:29:58;;;;;;;19.53;12.07;;;17.70;91.60;;;;;;4808967;29;20266;-83
2022/03/22 18:32:26;;;;;;;20.33;12.13;;;17.60;92.20;;;;;;4808712;29;20239;-85
2022/03/22 18:34:53;;;;;;;26.10;14.13;;;17.50;92.30;;;;;;4808257;29;20645;-87
2022/03/22 18:37:20;;;;;;;21.50;13.93;;;17.30;92.30;;;;;;4807847;29;20211;-83
2022/03/22 18:39:47;;;;;;;25.10;14.40;;;16.60;92.70;;;;;;4807875;29;20540;-86
2022/03/22 18:42:15;;;;;;;30.77;15.10;;;16.60;92.40;;;;;;4808287;29;20271;-83
2022/03/22 18:44:42;;;;;;;25.97;14.17;;;16.60;90.60;;;;;;4808257;29;20208;-82
2022/03/22 18:47:10;;;;;;;21.20;12.50;;;16.60;90.80;;;;;;4810746;29;20679;-85
2022/03/22 18:49:44;;;;;;;24.57;13.57;;;16.50;90.20;;;;;;4809622;29;20271;-87
2022/03/22 18:52:11;;;;;;;17.30;11.47;;;16.50;90.70;;;;;;4808840;29;20570;-84
2022/03/22 18:54:38;;;;;;;16.97;10.87;;;16.50;90.50;;;;;;4808379;29;20207;-84
2022/03/22 18:57:05;;;;;;;22.67;11.00;;;16.40;90.50;;;;;;4808756;29;20662;-84
2022/03/22 18:59:33;;;;;;;21.37;10.93;;;16.30;90.30;;;;;;4806861;29;20221;-89
2022/03/22 19:02:01;;;;;;;17.63;11.00;;;16.30;90.70;;;;;;4812704;29;20212;-89
2022/03/22 19:04:30;;;;;;;17.10;9.50;;;16.20;90.60;;;;;;4810937;29;20279;-88
2022/03/22 19:06:59;;;;;;;12.60;9.73;;;16.10;90.70;;;;;;4812690;29;20297;-89
2022/03/22 19:09:27;;;;;;;17.47;10.03;;;16.10;90.20;;;;;;4810570;29;20242;-86
2022/03/22 19:11:53;;;;;;;19.67;10.07;;;16.00;90.40;;;;;;4810994;29;20580;-81
2022/03/22 19:14:20;;;;;;;17.30;9.83;;;15.90;90.40;;;;;;4815421;29;20213;-81
2022/03/22 19:20:10;;;;;;;16.90;9.90;;;15.90;90.30;;;;;;4811021;29;20315;-81
2022/03/22 19:22:39;;;;;;;16.07;9.40;;;15.80;90.00;;;;;;4808748;29;20218;-82
2022/03/22 19:25:06;;;;;;;21.77;9.73;;;15.80;90.20;;;;;;4808241;29;20211;-83
2022/03/22 19:27:43;;;;;;;19.27;9.10;;;15.60;90.00;;;;;;4813793;29;20220;-82
2022/03/22 19:30:10;;;;;;;18.17;9.00;;;15.50;89.00;;;;;;4814115;29;20226;-83
2022/03/22 19:32:58;;;;;;;13.00;9.47;;;15.30;88.00;;;;;;4812118;29;20239;-82
2022/03/22 19:35:30;;;;;;;15.07;8.93;;;15.40;88.20;;;;;;4814850;29;20213;-80
2022/03/22 19:38:00;;;;;;;15.50;9.00;;;15.40;88.30;;;;;;4815251;29;20216;-80
2022/03/22 19:40:29;;;;;;;15.13;9.77;;;15.40;87.80;;;;;;4817921;29;20209;-81
2022/03/22 19:42:57;;;;;;;15.97;9.67;;;15.30;87.90;;;;;;4815695;29;20248;-81
2022/03/22 19:45:35;;;;;;;18.33;10.33;;;15.20;87.30;;;;;;4817858;29;20647;-81
2022/03/22 19:48:09;;;;;;;13.00;9.37;;;15.20;87.30;;;;;;4822556;29;20208;-80
2022/03/22 19:50:37;;;;;;;19.17;9.27;;;15.10;86.70;;;;;;4821547;29;20572;-81
2022/03/22 19:53:07;;;;;;;18.27;10.50;;;15.10;87.50;;;;;;4820543;29;20466;-80
2022/03/22 19:55:37;;;;;;;17.40;9.93;;;15.20;86.20;;;;;;4827189;29;20196;-79
2022/03/22 19:58:24;;;;;;;16.07;9.77;;;15.10;85.40;;;;;;4831657;29;20267;-80
2022/03/22 20:01:05;;;;;;;21.53;10.47;;;15.00;85.40;;;;;;4831282;29;20274;-80
2022/03/22 20:03:44;;;;;;;16.83;9.80;;;15.10;85.80;;;;;;4831509;29;20199;-80
2022/03/22 20:06:19;;;;;;;18.73;10.40;;;15.00;86.80;;;;;;4831238;29;20211;-79
2022/03/22 20:08:50;;;;;;;17.57;10.87;;;14.90;85.60;;;;;;4831382;29;20183;-80
2022/03/22 20:11:28;;;;;;;16.10;10.57;;;14.80;85.90;;;;;;4830680;29;20219;-80
2022/03/22 20:14:10;;;;;;;17.23;11.03;;;14.80;85.60;;;;;;4826456;29;20296;-80
2022/03/22 20:16:40;;;;;;;16.40;11.97;;;14.70;86.70;;;;;;4823522;29;20271;-80
2022/03/22 20:19:10;;;;;;;15.77;11.73;;;14.60;85.90;;;;;;4820051;29;20196;-80
2022/03/22 20:21:44;;;;;;;17.60;11.40;;;14.60;85.90;;;;;;4820274;29;20208;-80
2022/03/22 20:24:17;;;;;;;22.20;11.20;;;14.70;85.90;;;;;;4820166;29;20221;-80
2022/03/22 20:26:53;;;;;;;16.27;10.80;;;14.70;85.20;;;;;;4821187;29;20215;-81
2022/03/22 20:29:37;;;;;;;17.13;11.07;;;14.60;85.20;;;;;;4820837;29;20264;-80
2022/03/22 20:32:19;;;;;;;19.63;12.88;;;14.50;85.50;;;;;;4819894;29;20496;-80
2022/03/22 20:34:48;;;;;;;17.57;10.97;;;14.70;85.30;;;;;;4820772;29;20207;-80
2022/03/22 20:37:21;;;;;;;16.93;11.97;;;14.70;84.50;;;;;;4817772;29;20217;-80
2022/03/22 20:39:58;;;;;;;19.00;11.90;;;14.60;84.40;;;;;;4818368;29;20238;-81
2022/03/22 20:43:18;;;;;;;17.17;11.50;;;14.50;84.20;;;;;;4824555;29;20218;-80
2022/03/22 20:45:55;;;;;;;17.77;10.60;;;14.40;84.00;;;;;;4825479;29;20283;-80
2022/03/22 20:48:27;;;;;;;18.37;11.23;;;14.40;83.50;;;;;;4817993;29;20644;-81
2022/03/22 20:50:54;;;;;;;19.50;11.20;;;14.40;83.40;;;;;;4818182;29;20277;-79
2022/03/22 20:53:30;;;;;;;20.83;11.70;;;14.30;84.20;;;;;;4818400;29;20246;-79
2022/03/22 21:02:38;;;;;;;17.70;12.40;;;14.10;86.80;;;;;;4829951;29;20191;-80
2022/03/22 21:05:16;;;;;;;19.63;12.43;;;14.00;86.10;;;;;;4830237;29;20218;-81
2022/03/22 21:08:28;;;;;;;15.70;12.47;;;14.00;85.10;;;;;;4829842;29;20267;-81
2022/03/22 21:10:57;;;;;;;20.55;14.65;;;14.00;85.70;;;;;;4823755;29;20457;-81
2022/03/22 21:13:34;;;;;;;15.70;12.33;;;14.10;89.20;;;;;;4817126;29;20259;-81
2022/03/22 21:16:03;;;;;;;23.47;13.17;;;13.90;89.70;;;;;;4818597;29;20209;-81
2022/03/22 21:18:32;;;;;;;21.17;13.27;;;13.90;88.70;;;;;;4819098;29;20235;-80
2022/03/22 21:21:02;;;;;;;17.77;13.37;;;13.80;90.00;;;;;;4817781;29;20214;-80
2022/03/22 21:23:32;;;;;;;16.87;13.07;;;13.70;89.40;;;;;;4818443;29;20212;-80
2022/03/22 21:26:05;;;;;;;20.37;13.67;;;13.50;88.80;;;;;;4826613;29;20213;-81
2022/03/22 21:28:53;;;;;;;21.48;14.57;;;13.50;88.90;;;;;;4832724;29;20474;-80
2022/03/22 21:31:25;;;;;;;20.67;12.00;;;13.50;88.60;;;;;;5308317;24;20241;-81
2022/03/22 21:34:28;;;;;;;19.33;12.67;;;13.40;90.30;;;;;;4859279;29;20235;-80
2022/03/22 21:40:34;;;;;;;19.97;15.10;;;13.20;89.80;;;;;;4862063;29;20219;-80
2022/03/22 21:43:06;;;;;;;22.60;14.70;;;12.90;88.90;;;;;;4870087;29;20201;-82
2022/03/22 21:46:03;;;;;;;18.67;13.43;;;12.90;90.20;;;;;;4870112;29;20229;-80
2022/03/22 21:48:36;;;;;;;20.07;13.07;;;12.90;89.90;;;;;;4868074;29;20184;-80
2022/03/22 21:51:25;;;;;;;25.27;14.17;;;12.90;89.90;;;;;;4869498;29;20237;-80
2022/03/22 21:54:12;;;;;;;22.17;12.87;;;13.00;90.00;;;;;;4869392;29;20240;-81
2022/03/22 21:56:54;;;;;;;21.97;14.43;;;12.90;90.10;;;;;;4866089;29;20212;-80
2022/03/22 21:59:33;;;;;;;18.90;13.20;;;13.00;90.20;;;;;;4864898;29;20246;-80
2022/03/22 22:02:19;;;;;;;21.90;14.00;;;13.00;90.00;;;;;;4858857;29;20223;-80
2022/03/22 22:04:48;;;;;;;17.73;13.87;;;13.00;89.80;;;;;;4855709;29;20224;-81
2022/03/22 22:10:03;;;;;;;20.53;14.10;;;12.90;90.00;;;;;;4858129;29;20215;-81
2022/03/22 22:12:31;;;;;;;25.33;13.87;;;12.90;90.10;;;;;;4862392;29;20306;-81
2022/03/22 22:15:03;;;;;;;25.83;13.90;;;12.80;90.20;;;;;;4861023;29;20233;-80
2022/03/22 22:17:33;;;;;;;22.43;14.10;;;12.80;90.50;;;;;;4861849;29;20245;-81
2022/03/22 22:20:04;;;;;;;23.97;14.03;;;12.80;90.50;;;;;;4861714;29;20210;-80
2022/03/22 22:22:33;;;;;;;23.40;14.10;;;12.70;90.70;;;;;;4864725;29;20213;-80
2022/03/22 22:25:00;;;;;;;23.40;14.50;;;12.70;90.80;;;;;;4864256;29;20244;-81
2022/03/22 22:27:35;;;;;;;26.73;14.90;;;12.60;91.20;;;;;;4864499;29;20270;-82
2022/03/22 22:30:05;;;;;;;19.97;14.13;;;12.60;91.20;;;;;;4862697;29;20220;-81
2022/03/22 22:35:21;;;;;;;21.37;15.10;;;12.30;91.70;;;;;;4860985;29;20634;-81
2022/03/22 22:37:49;;;;;;;28.43;14.87;;;12.30;92.20;;;;;;4856420;29;20213;-79
2022/03/22 22:40:31;;;;;;;21.10;15.17;;;12.20;92.50;;;;;;4861407;29;20218;-80
2022/03/22 22:43:02;;;;;;;21.47;14.17;;;12.20;93.00;;;;;;4864591;29;20249;-80
2022/03/22 22:45:33;;;;;;;26.50;15.00;;;12.10;93.20;;;;;;4856967;29;20218;-81
2022/03/22 22:48:02;;;;;;;23.73;14.27;;;11.90;94.00;;;;;;4853649;29;20220;-80
2022/03/22 22:50:32;;;;;;;18.40;13.93;;;11.80;94.40;;;;;;4854527;29;20258;-79
2022/03/22 22:53:01;;;;;;;20.77;14.13;;;11.60;95.10;;;;;;4854501;29;20320;-80
2022/03/22 22:55:28;;;;;;;22.60;13.97;;;11.50;95.70;;;;;;4855879;29;20668;-78
2022/03/22 22:58:03;;;;;;;23.23;14.60;;;11.40;95.90;;;;;;4853587;29;20213;-80
2022/03/22 23:00:54;;;;;;;21.17;14.57;;;11.30;96.10;;;;;;4856091;29;20213;-80
2022/03/22 23:03:26;;;;;;;24.97;14.77;;;11.30;96.10;;;;;;4854119;29;20231;-80
2022/03/22 23:05:54;;;;;;;22.15;16.20;;;11.00;96.20;;;;;;4855253;29;20480;-79
2022/03/22 23:11:07;;;;;;;22.23;14.70;;;11.10;96.10;;;;;;4854553;29;20197;-80
2022/03/22 23:13:36;;;;;;;27.27;15.30;;;10.90;96.70;;;;;;4851673;29;20229;-80
2022/03/22 23:16:16;;;;;;;27.23;14.97;;;10.80;96.70;;;;;;4854074;29;20214;-81
2022/03/22 23:18:45;;;;;;;20.23;14.60;;;10.80;96.70;;;;;;4853101;29;20201;-80
2022/03/22 23:21:15;;;;;;;24.43;15.00;;;10.80;96.40;;;;;;4851554;29;20293;-80
2022/03/22 23:23:47;;;;;;;20.53;15.33;;;10.70;97.70;;;;;;4857443;29;20214;-82
2022/03/22 23:26:24;;;;;;;24.10;15.47;;;10.60;97.20;;;;;;4862358;29;20261;-80
2022/03/22 23:29:10;;;;;;;27.77;15.70;;;10.50;97.60;;;;;;4855030;29;20608;-80
2022/03/22 23:31:40;;;;;;;24.33;15.07;;;10.50;98.20;;;;;;4854258;29;20233;-82
2022/03/22 23:36:50;;;;;;;20.43;14.50;;;10.50;98.80;;;;;;4854718;29;20206;-79
2022/03/22 23:39:24;;;;;;;23.30;15.17;;;10.30;99.70;;;;;;4855823;29;20201;-80
2022/03/22 23:41:51;;;;;;;20.43;15.67;;;10.30;99.40;;;;;;4854706;29;20214;-81
2022/03/22 23:44:28;;;;;;;22.53;16.13;;;10.20;99.90;;;;;;4854729;29;20200;-80
2022/03/22 23:46:56;;;;;;;25.03;15.47;;;10.10;99.90;;;;;;4853588;29;20202;-80
2022/03/22 23:49:26;;;;;;;23.23;15.53;;;10.10;99.90;;;;;;4853642;29;20210;-80
2022/03/22 23:51:56;;;;;;;24.37;14.37;;;10.00;99.90;;;;;;4852798;29;20198;-80
2022/03/22 23:54:29;;;;;;;19.17;14.53;;;10.00;99.90;;;;;;4853216;29;20268;-80
2022/03/22 23:57:16;;;;;;;25.17;16.40;;;10.00;99.90;;;;;;4850760;29;20210;-80
2022/03/22 23:59:54;;;;;;;25.03;16.23;;;9.90;99.90;;;;;;4855097;29;20198;-80
